Time;durP1;ratioP1;P1;durP2;ratioP2;P2;SDS_P1;SDS_P2;PMS_P1;PMS_P2;Temp;Humidity;BMP_temperature;BMP_pressure;BME280_temperature;BME280_humidity;BME280_pressure;Samples;Min_cycle;Max_cycle;Signal;HPM_P1;HPM_P2
2022/12/22 03:27:12;;;;;;;;;0.00;0.00;;;;;10.10;84.40;98536.88;5036559;28;8999;-60
2022/12/22 03:29:40;;;;;;;;;0.00;0.00;;;;;10.13;84.26;98538.41;5036544;28;8848;-60
2022/12/22 03:32:08;;;;;;;;;0.00;0.00;;;;;10.15;84.63;98528.44;5036144;28;8848;-59
2022/12/22 03:34:35;;;;;;;;;0.00;0.00;;;;;10.16;84.74;98520.31;5035797;28;9498;-60
2022/12/22 03:37:03;;;;;;;;;0.00;0.00;;;;;10.18;84.26;98523.66;5036073;28;8856;-60
2022/12/22 03:39:33;;;;;;;;;0.00;0.00;;;;;10.19;84.16;98522.69;5035425;28;8812;-59
2022/12/22 03:47:30;;;;;;;;;0.00;0.00;;;;;10.20;84.50;98508.41;5036222;28;8868;-60
2022/12/22 03:49:58;;;;;;;;;0.00;0.00;;;;;10.18;84.61;98499.72;5035331;28;8816;-60
2022/12/22 03:52:26;;;;;;;;;0.00;0.00;;;;;10.19;84.62;98498.75;5035438;28;8847;-58
2022/12/22 03:54:54;;;;;;;;;0.00;0.00;;;;;10.18;84.90;98502.38;5035846;28;8812;-59
2022/12/22 03:57:21;;;;;;;;;0.00;0.00;;;;;10.18;84.48;98494.41;5035592;28;8848;-60
2022/12/22 03:59:49;;;;;;;;;0.00;0.00;;;;;10.19;84.40;98485.44;5035094;28;8825;-57
2022/12/22 04:02:17;;;;;;;;;0.00;0.00;;;;;10.20;84.67;98487.13;5036062;28;8836;-59
2022/12/22 04:04:45;;;;;;;;;0.00;0.00;;;;;10.20;84.78;98484.47;5035875;28;8828;-58
2022/12/22 04:07:13;;;;;;;;;0.00;0.00;;;;;10.20;84.76;98479.13;5035888;28;8914;-59
2022/12/22 04:12:53;;;;;;;;;0.00;0.00;;;;;10.21;84.48;98475.47;5035740;28;8821;-60
2022/12/22 04:15:13;;;;;;;;;0.00;0.00;;;;;10.22;84.60;98476.28;5035824;28;8910;-59
2022/12/22 04:17:41;;;;;;;;;0.00;0.00;;;;;10.21;85.27;98470.16;5035407;28;8871;-59
2022/12/22 04:20:09;;;;;;;;;0.00;0.00;;;;;10.22;84.86;98466.50;5035402;28;8824;-57
2022/12/22 04:22:37;;;;;;;;;0.00;0.00;;;;;10.22;84.93;98463.84;5035556;28;9700;-60
2022/12/22 04:25:04;;;;;;;;;0.00;0.00;;;;;10.24;84.89;98461.03;5035568;28;8836;-59
2022/12/22 04:27:32;;;;;;;;;0.00;0.00;;;;;10.24;85.35;98456.53;5034976;28;8840;-60
2022/12/22 04:29:59;;;;;;;;;0.00;0.00;;;;;10.25;85.43;98460.84;5035517;28;8851;-60
2022/12/22 04:32:27;;;;;;;;;0.00;0.00;;;;;10.26;84.81;98459.06;5035255;28;8825;-60
2022/12/22 04:34:55;;;;;;;;;0.00;0.00;;;;;10.25;84.71;98455.53;5035307;28;8832;-60
2022/12/22 04:37:23;;;;;;;;;0.00;0.00;;;;;10.27;84.83;98456.25;5035401;28;8864;-60
2022/12/22 04:39:51;;;;;;;;;0.00;0.00;;;;;10.28;84.55;98455.25;5035470;28;9518;-60
2022/12/22 04:42:18;;;;;;;;;0.00;0.00;;;;;10.28;84.89;98454.41;5035455;28;8824;-60
2022/12/22 04:44:46;;;;;;;;;0.00;0.00;;;;;10.28;85.16;98444.59;5035378;28;8832;-59
2022/12/22 04:47:14;;;;;;;;;0.00;0.00;;;;;10.30;85.03;98439.94;5035358;28;8848;-60
2022/12/22 04:49:42;;;;;;;;;0.50;0.00;;;;;10.31;85.18;98438.97;5034609;28;8805;-60
2022/12/22 04:52:10;;;;;;;;;0.00;0.00;;;;;10.33;84.93;98442.28;5037916;28;8871;-59
2022/12/22 04:54:37;;;;;;;;;0.00;0.00;;;;;10.34;84.78;98440.47;5038495;28;8840;-60
2022/12/22 04:57:05;;;;;;;;;0.00;0.00;;;;;10.34;84.70;98432.50;5038517;28;8832;-60
2022/12/22 04:59:33;;;;;;;;;0.00;0.00;;;;;10.34;85.29;98440.47;5038192;28;8851;-60
2022/12/22 05:02:00;;;;;;;;;0.00;0.00;;;;;10.34;85.06;98433.34;5038016;28;8843;-59
2022/12/22 05:04:31;;;;;;;;;0.00;0.00;;;;;10.35;85.39;98428.84;5038367;28;9690;-59
2022/12/22 05:06:58;;;;;;;;;0.00;0.00;;;;;10.34;84.92;98428.03;5038624;28;8844;-56
2022/12/22 05:09:26;;;;;;;;;0.00;0.00;;;;;10.35;84.93;98431.50;5037745;28;8824;-60
2022/12/22 05:11:54;;;;;;;;;0.00;0.00;;;;;10.35;85.08;98424.38;5037991;28;8836;-58
2022/12/22 05:14:22;;;;;;;;;0.00;0.00;;;;;10.36;84.87;98419.84;5038051;28;8863;-59
2022/12/22 05:16:49;;;;;;;;;0.00;0.00;;;;;10.35;84.99;98416.38;5038222;28;9547;-59
2022/12/22 05:19:17;;;;;;;;;0.00;0.00;;;;;10.35;84.89;98416.38;5037100;28;8820;-59
2022/12/22 05:21:52;;;;;;;;;0.00;0.00;;;;;10.34;84.89;98414.72;5037795;28;8913;-60
2022/12/22 05:24:20;;;;;;;;;0.00;0.00;;;;;10.34;85.31;98406.72;5038136;28;8843;-58
2022/12/22 05:26:48;;;;;;;;;0.00;0.00;;;;;10.34;84.93;98401.41;5038330;28;8832;-60
2022/12/22 05:29:15;;;;;;;;;0.00;0.00;;;;;10.33;85.23;98399.72;5038310;28;8843;-59
2022/12/22 05:31:43;;;;;;;;;0.00;0.00;;;;;10.34;85.28;98393.44;5037740;28;8848;-59
2022/12/22 05:34:14;;;;;;;;;0.00;0.00;;;;;10.34;85.28;98389.94;5037240;28;8845;-59
2022/12/22 05:36:41;;;;;;;;;0.00;0.00;;;;;10.34;85.05;98395.25;5037526;28;8836;-58
2022/12/22 05:39:09;;;;;;;;;0.00;0.00;;;;;10.33;85.30;98389.06;5037813;28;8824;-57
2022/12/22 05:41:37;;;;;;;;;0.00;0.00;;;;;10.33;85.70;98393.59;5037846;28;8855;-59
2022/12/22 05:44:05;;;;;;;;;0.00;0.00;;;;;10.32;84.98;98390.06;5037699;28;8828;-57
2022/12/22 05:46:32;;;;;;;;;0.00;0.00;;;;;10.31;85.83;98395.56;5037235;28;9545;-59
2022/12/22 05:49:00;;;;;;;;;0.00;0.00;;;;;10.29;85.09;98393.06;5037669;28;8867;-59
2022/12/22 05:51:28;;;;;;;;;0.00;0.00;;;;;10.28;85.95;98388.75;5037745;28;8860;-58
2022/12/22 05:53:55;;;;;;;;;0.00;0.00;;;;;10.29;85.05;98394.88;5037377;28;8836;-58
2022/12/22 05:56:23;;;;;;;;;0.00;0.00;;;;;10.30;85.49;98389.41;5037254;28;8931;-59
2022/12/22 05:58:51;;;;;;;;;0.00;0.00;;;;;10.30;85.57;98394.72;5037200;28;8856;-59
2022/12/22 06:01:19;;;;;;;;;0.00;0.00;;;;;10.29;85.55;98398.38;5036730;28;8824;-59
2022/12/22 06:03:46;;;;;;;;;0.00;0.00;;;;;10.30;85.58;98400.03;5037347;28;8807;-59
2022/12/22 06:06:14;;;;;;;;;0.00;0.00;;;;;10.29;85.19;98398.38;5037369;28;8853;-59
2022/12/22 06:08:42;;;;;;;;;0.00;0.00;;;;;10.29;85.25;98401.03;5036767;28;8865;-58
2022/12/22 06:11:10;;;;;;;;;0.00;0.00;;;;;10.29;85.31;98392.22;5036577;28;8860;-58
2022/12/22 06:13:38;;;;;;;;;0.00;0.00;;;;;10.29;85.56;98389.56;5036527;28;8840;-60
2022/12/22 06:16:06;;;;;;;;;0.00;0.00;;;;;10.29;85.91;98389.56;5035532;28;8849;-59
2022/12/22 06:18:34;;;;;;;;;0.00;0.00;;;;;10.29;85.35;98393.06;5035750;28;9547;-57
2022/12/22 06:21:01;;;;;;;;;0.00;0.00;;;;;10.29;85.40;98387.75;5035551;28;8822;-58
2022/12/22 06:23:29;;;;;;;;;0.00;0.00;;;;;10.29;85.51;98387.75;5035758;28;8872;-59
2022/12/22 06:25:57;;;;;;;;;0.00;0.00;;;;;10.30;85.45;98392.06;5034735;28;8834;-59
2022/12/22 06:28:24;;;;;;;;;0.00;0.00;;;;;10.29;85.25;98395.72;5035423;28;9515;-60
2022/12/22 06:30:52;;;;;;;;;0.00;0.00;;;;;10.29;85.53;98398.38;5035444;28;8856;-59
2022/12/22 06:33:20;;;;;;;;;0.00;0.00;;;;;10.29;85.50;98392.22;5034225;28;9597;-59
2022/12/22 06:35:48;;;;;;;;;0.00;0.00;;;;;10.28;85.46;98394.06;5033951;28;8846;-58
2022/12/22 06:38:24;;;;;;;;;0.00;0.00;;;;;10.24;85.65;98384.72;5033102;28;8887;-59
2022/12/22 06:40:52;;;;;;;;;0.00;0.00;;;;;10.21;85.50;98389.50;5033492;28;8853;-59
2022/12/22 06:43:19;;;;;;;;;0.00;0.00;;;;;10.16;85.14;98391.84;5032802;28;8837;-60
2022/12/22 06:45:46;;;;;;;;;0.00;0.00;;;;;10.11;86.04;98397.59;5033493;28;8873;-59
2022/12/22 06:48:14;;;;;;;;;2.50;2.50;;;;;10.09;85.89;98388.94;5033425;28;8881;-59
2022/12/22 06:50:42;;;;;;;;;3.00;3.00;;;;;10.08;85.65;98415.72;5033703;28;8856;-59
2022/12/22 06:53:10;;;;;;;;;0.00;0.00;;;;;10.05;85.65;98414.19;5033674;28;9538;-59
2022/12/22 06:55:38;;;;;;;;;1.50;1.50;;;;;10.04;85.56;98414.34;5033220;28;8846;-58
2022/12/22 06:58:06;;;;;;;;;2.00;1.00;;;;;10.02;85.78;98416.31;5034101;28;9031;-60
2022/12/22 07:00:35;;;;;;;;;0.00;0.00;;;;;10.01;86.02;98417.28;5032671;28;8822;-60
2022/12/22 07:03:03;;;;;;;;;2.50;2.00;;;;;9.99;86.10;98414.78;5031515;28;9132;-57
2022/12/22 07:05:31;;;;;;;;;1.00;1.00;;;;;9.97;85.58;98424.75;5029288;28;8830;-59
2022/12/22 07:07:59;;;;;;;;;1.00;1.00;;;;;9.96;85.95;98425.72;5028324;28;8842;-59
2022/12/22 07:13:20;;;;;;;;;2.00;2.00;;;;;9.91;85.86;98414.72;5030074;28;8960;-58
2022/12/22 07:15:48;;;;;;;;;1.00;1.00;;;;;9.92;86.23;98420.88;5030898;28;8846;-59
2022/12/22 07:18:26;;;;;;;;;0.00;0.00;;;;;9.96;86.07;98432.88;5032019;28;8842;-59
2022/12/22 07:20:54;;;;;;;;;0.00;0.00;;;;;9.97;85.91;98435.38;5032659;28;8857;-59
2022/12/22 07:23:22;;;;;;;;;0.00;0.00;;;;;9.99;85.55;98427.22;5033520;28;9544;-59
2022/12/22 07:25:50;;;;;;;;;0.00;0.00;;;;;10.01;85.60;98446.56;5033556;28;8818;-59
2022/12/22 07:28:18;;;;;;;;;0.00;0.00;;;;;10.03;85.78;98434.78;5033488;28;8830;-58
2022/12/22 07:30:47;;;;;;;;;0.00;0.00;;;;;10.07;85.44;98437.97;5032834;28;8834;-59
2022/12/22 07:33:15;;;;;;;;;0.00;0.00;;;;;10.10;85.90;98442.97;5033175;28;8845;-58
2022/12/22 07:35:43;;;;;;;;;0.00;0.00;;;;;10.10;85.58;98441.13;5032817;28;8844;-59
2022/12/22 07:38:11;;;;;;;;;0.00;0.00;;;;;10.13;85.80;98456.81;5032753;28;8842;-59
2022/12/22 07:40:38;;;;;;;;;0.00;0.00;;;;;10.16;85.44;98451.16;5032284;28;8840;-59
2022/12/22 07:43:08;;;;;;;;;0.00;0.00;;;;;10.18;85.48;98461.66;5032716;28;8826;-58
2022/12/22 07:45:36;;;;;;;;;0.00;0.00;;;;;10.21;85.30;98462.19;5032704;28;9535;-59
2022/12/22 07:50:23;;;;;;;;;1.00;0.00;;;;;10.22;85.50;98474.50;5032675;28;8876;-59
2022/12/22 07:50:51;;;;;;;;;0.00;0.00;;;;;10.25;85.36;98481.31;5032536;28;8856;-58
2022/12/22 07:53:18;;;;;;;;;0.00;0.00;;;;;10.23;85.68;98478.81;5032681;28;8845;-59
2022/12/22 07:55:46;;;;;;;;;0.00;0.00;;;;;10.25;85.63;98479.47;5032133;28;8875;-59
2022/12/22 07:58:15;;;;;;;;;0.00;0.00;;;;;10.25;85.33;98491.97;5032404;28;8818;-58
2022/12/22 08:00:42;;;;;;;;;0.50;0.50;;;;;10.24;85.69;98488.47;5032096;28;8834;-59
2022/12/22 08:03:10;;;;;;;;;0.50;0.50;;;;;10.25;85.27;98494.63;5031300;28;8900;-59
2022/12/22 08:05:38;;;;;;;;;3.00;1.50;;;;;10.25;85.16;98498.09;5031722;28;8887;-59
2022/12/22 08:08:06;;;;;;;;;1.00;1.00;;;;;10.26;85.56;98506.94;5032500;28;8964;-57
2022/12/22 08:10:34;;;;;;;;;1.00;1.00;;;;;10.28;85.06;98511.13;5032436;28;8840;-58
2022/12/22 08:13:02;;;;;;;;;3.00;3.00;;;;;10.28;85.62;98511.13;5033134;28;9530;-58
2022/12/22 08:15:29;;;;;;;;;1.50;1.50;;;;;10.29;85.16;98511.94;5031807;28;9538;-59
2022/12/22 08:17:57;;;;;;;;;1.00;0.25;;;;;10.30;85.53;98518.91;5031812;28;9009;-59
2022/12/22 08:20:25;;;;;;;;;3.00;3.00;;;;;10.29;85.08;98518.09;5031442;28;9193;-57
2022/12/22 08:22:54;;;;;;;;;2.00;1.50;;;;;10.29;85.65;98530.56;5032442;28;8826;-59
2022/12/22 08:25:22;;;;;;;;;1.50;1.50;;;;;10.30;85.61;98527.75;5031534;28;8829;-57
2022/12/22 08:27:49;;;;;;;;;3.00;3.00;;;;;10.30;85.17;98537.53;5034401;28;8822;-57
2022/12/22 08:30:17;;;;;;;;;3.50;3.50;;;;;10.29;85.35;98531.41;5035021;28;9289;-59
2022/12/22 08:32:45;;;;;;;;;1.50;1.50;;;;;10.30;85.31;98540.19;5035072;28;8864;-59
2022/12/22 08:35:13;;;;;;;;;3.25;3.25;;;;;10.29;85.65;98539.38;5035330;28;8838;-58
2022/12/22 08:37:41;;;;;;;;;4.00;4.00;;;;;10.31;84.80;98545.38;5034527;28;8818;-57
2022/12/22 08:40:09;;;;;;;;;3.50;3.00;;;;;10.33;85.44;98547.91;5034305;28;8940;-59
2022/12/22 08:42:37;;;;;;;;;3.75;3.50;;;;;10.34;85.37;98549.56;5034947;28;8829;-59
2022/12/22 08:45:07;;;;;;;;;3.00;3.00;;;;;10.34;85.19;98545.09;5035531;28;8844;-57
2022/12/22 08:47:36;;;;;;;;;6.00;4.00;;;;;10.36;85.49;98548.41;5034799;28;8858;-59
2022/12/22 08:50:04;;;;;;;;;3.50;3.00;;;;;10.35;84.88;98560.06;5035092;28;8920;-59
2022/12/22 08:52:32;;;;;;;;;4.00;4.00;;;;;10.37;85.40;98570.53;5035138;28;8980;-58
2022/12/22 08:54:59;;;;;;;;;8.75;7.75;;;;;10.37;85.62;98574.03;5034066;28;8826;-58
2022/12/22 08:57:27;;;;;;;;;6.25;6.25;;;;;10.38;85.13;98582.84;5034172;28;8868;-58
2022/12/22 08:59:56;;;;;;;;;6.50;4.25;;;;;10.38;85.30;98591.66;5034932;28;8846;-57
2022/12/22 09:02:24;;;;;;;;;7.00;6.75;;;;;10.39;85.37;98611.97;5032861;28;8842;-59
2022/12/22 09:04:52;;;;;;;;;9.50;7.50;;;;;10.38;85.24;98604.97;5033248;28;8826;-59
2022/12/22 09:07:20;;;;;;;;;10.75;10.75;;;;;10.38;85.57;98612.09;5034286;28;8844;-58
2022/12/22 09:09:48;;;;;;;;;8.00;8.00;;;;;10.38;85.50;98626.25;5034263;28;8834;-59
2022/12/22 09:12:16;;;;;;;;;6.50;6.25;;;;;10.37;85.57;98629.06;5034864;28;9500;-59
2022/12/22 09:14:44;;;;;;;;;3.75;3.50;;;;;10.37;85.51;98634.38;5034893;28;8826;-59
2022/12/22 09:17:11;;;;;;;;;5.25;4.50;;;;;10.34;85.69;98627.56;5034673;28;8880;-59
2022/12/22 09:19:39;;;;;;;;;4.00;4.00;;;;;10.34;85.52;98640.03;5035695;28;8973;-59
2022/12/22 09:22:08;;;;;;;;;6.25;6.25;;;;;10.34;85.59;98648.00;5035847;28;8845;-58
2022/12/22 09:24:36;;;;;;;;;9.25;7.50;;;;;10.32;85.76;98645.50;5036051;28;9523;-59
2022/12/22 09:27:05;;;;;;;;;7.00;7.00;;;;;10.32;85.90;98653.47;5035494;28;8957;-58
2022/12/22 09:29:33;;;;;;;;;8.50;7.00;;;;;10.33;86.04;98655.16;5035163;28;8842;-59
2022/12/22 09:32:00;;;;;;;;;5.50;5.00;;;;;10.34;85.84;98672.81;5034015;28;9678;-58
2022/12/22 09:34:28;;;;;;;;;8.00;6.50;;;;;10.34;85.72;98663.97;5032272;28;8956;-59
2022/12/22 09:36:57;;;;;;;;;6.50;6.00;;;;;10.38;85.57;98678.63;5032398;28;8850;-59
2022/12/22 09:39:24;;;;;;;;;6.00;5.50;;;;;10.38;86.14;98674.16;5033996;28;9675;-59
2022/12/22 09:41:55;;;;;;;;;6.50;6.50;;;;;10.38;85.84;98674.16;5032974;28;8861;-60
2022/12/22 09:44:23;;;;;;;;;4.00;3.75;;;;;10.41;85.93;98679.16;5033414;28;8838;-59
2022/12/22 09:46:51;;;;;;;;;3.75;3.00;;;;;10.44;85.74;98684.19;5034171;28;8849;-58
2022/12/22 09:49:21;;;;;;;;;5.00;4.75;;;;;10.47;85.32;98681.22;5034201;28;8834;-59
2022/12/22 09:51:49;;;;;;;;;6.50;4.50;;;;;10.51;85.81;98690.59;5034935;28;8838;-59
2022/12/22 09:54:16;;;;;;;;;6.00;4.50;;;;;10.56;85.45;98692.78;5034626;28;8860;-59
2022/12/22 09:56:44;;;;;;;;;7.50;6.00;;;;;10.61;85.38;98701.16;5035496;28;8916;-59
2022/12/22 09:59:12;;;;;;;;;4.00;4.00;;;;;10.66;85.16;98701.53;5035552;28;8826;-58
2022/12/22 10:01:41;;;;;;;;;4.50;4.00;;;;;10.72;84.96;98699.09;5035197;28;8952;-59
2022/12/22 10:04:09;;;;;;;;;7.00;6.00;;;;;10.79;84.94;98709.97;5034644;28;8834;-59
2022/12/22 10:06:37;;;;;;;;;4.50;4.00;;;;;10.85;85.19;98710.19;5033805;28;8962;-59
2022/12/22 10:09:05;;;;;;;;;7.50;6.25;;;;;10.88;84.77;98712.56;5034015;28;8838;-59
2022/12/22 10:11:53;;;;;;;;;7.50;6.50;;;;;10.92;84.50;98711.25;5033975;28;9554;-59
2022/12/22 10:14:21;;;;;;;;;10.50;10.00;;;;;10.96;84.71;98717.09;5033298;28;8836;-57
2022/12/22 10:16:49;;;;;;;;;10.00;9.50;;;;;10.98;84.40;98718.63;5032115;28;8857;-59
2022/12/22 10:19:17;;;;;;;;;10.75;8.00;;;;;11.02;84.36;98713.81;5031990;28;8825;-59
2022/12/22 10:21:45;;;;;;;;;9.50;9.00;;;;;11.07;84.46;98698.22;5032930;28;8864;-60
2022/12/22 10:24:14;;;;;;;;;9.25;6.50;;;;;11.15;84.79;98712.41;5032580;28;8842;-59
2022/12/22 10:26:43;;;;;;;;;9.25;6.75;;;;;11.22;84.73;98721.47;5032599;28;8826;-58
2022/12/22 10:29:10;;;;;;;;;11.00;9.50;;;;;11.26;84.49;98714.84;5032394;28;8844;-60
2022/12/22 10:31:38;;;;;;;;;9.00;8.00;;;;;11.33;84.16;98715.88;5032653;28;8834;-59
2022/12/22 10:34:06;;;;;;;;;10.00;9.00;;;;;11.44;83.76;98722.78;5032238;28;8846;-59
2022/12/22 10:36:34;;;;;;;;;9.25;8.00;;;;;11.50;84.13;98722.97;5032119;28;8854;-59
2022/12/22 10:39:02;;;;;;;;;5.50;4.50;;;;;11.55;83.70;98731.34;5032591;28;8829;-59
2022/12/22 10:41:30;;;;;;;;;9.00;6.75;;;;;11.56;83.60;98733.03;5032566;28;8834;-59
2022/12/22 10:43:58;;;;;;;;;8.50;8.50;;;;;11.54;83.73;98743.00;5032200;28;8838;-60
2022/12/22 10:46:26;;;;;;;;;12.00;9.75;;;;;11.46;84.21;98742.13;5031519;28;8846;-59
2022/12/22 10:48:54;;;;;;;;;4.50;3.25;;;;;11.36;83.79;98755.53;5029155;28;8850;-59
2022/12/22 10:51:23;;;;;;;;;8.50;8.00;;;;;11.26;84.26;98761.97;5030659;28;8830;-58
2022/12/22 10:53:51;;;;;;;;;8.50;7.00;;;;;11.20;85.01;98776.75;5030854;28;8840;-58
2022/12/22 10:56:19;;;;;;;;;7.50;7.50;;;;;11.10;85.15;98773.34;5031038;28;8838;-59
2022/12/22 10:58:47;;;;;;;;;7.50;7.50;;;;;11.05;84.81;98785.41;5031272;28;8931;-59
2022/12/22 11:01:15;;;;;;;;;6.50;6.00;;;;;10.98;84.73;98784.34;5030870;28;8834;-59
2022/12/22 11:03:43;;;;;;;;;7.00;7.00;;;;;10.93;84.86;98786.66;5029894;28;8842;-58
2022/12/22 11:06:11;;;;;;;;;8.50;8.50;;;;;10.89;85.34;98798.59;5029564;28;8858;-59
2022/12/22 11:08:39;;;;;;;;;8.75;7.00;;;;;10.85;85.78;98806.06;5029909;28;8865;-57
2022/12/22 11:11:15;;;;;;;;;10.75;9.50;;;;;10.80;85.07;98811.00;5030300;28;8864;-58
2022/12/22 11:13:43;;;;;;;;;10.50;9.75;;;;;10.76;85.70;98817.63;5030101;28;8834;-59
2022/12/22 11:16:11;;;;;;;;;11.50;11.50;;;;;10.74;85.83;98824.94;5030340;28;8838;-59
2022/12/22 11:18:39;;;;;;;;;7.00;6.50;;;;;10.69;85.46;98816.53;5032879;28;8856;-59
2022/12/22 11:21:07;;;;;;;;;6.50;6.50;;;;;10.64;85.86;98821.50;5032354;28;8845;-59
2022/12/22 11:23:35;;;;;;;;;10.00;8.50;;;;;10.60;85.78;98830.75;5032103;28;9561;-59
2022/12/22 11:26:03;;;;;;;;;12.25;10.00;;;;;10.57;86.28;98832.88;5030494;28;9154;-57
2022/12/22 11:28:31;;;;;;;;;13.50;12.75;;;;;10.54;86.19;98846.50;5030155;28;8861;-56
2022/12/22 11:30:59;;;;;;;;;9.50;9.00;;;;;10.50;86.20;98842.44;5030847;28;9301;-58
2022/12/22 11:33:27;;;;;;;;;7.50;7.00;;;;;10.46;86.06;98841.91;5031105;28;8950;-59
2022/12/22 11:35:56;;;;;;;;;12.50;12.00;;;;;10.44;86.29;98851.00;5031346;28;9512;-59
2022/12/22 11:38:23;;;;;;;;;9.00;8.00;;;;;10.40;86.48;98855.78;5031379;28;8858;-58
2022/12/22 11:40:51;;;;;;;;;8.50;6.50;;;;;10.38;86.13;98863.09;5033788;28;8838;-58
2022/12/22 11:43:20;;;;;;;;;13.00;12.00;;;;;10.36;86.26;98856.22;5032600;28;8826;-59
2022/12/22 11:45:48;;;;;;;;;9.00;8.75;;;;;10.34;86.01;98863.53;5032214;28;8864;-60
2022/12/22 11:48:16;;;;;;;;;5.75;3.00;;;;;10.35;86.39;98863.41;5032910;28;8955;-58
2022/12/22 11:50:44;;;;;;;;;5.00;5.00;;;;;10.34;86.69;98874.19;5032731;28;8846;-59
2022/12/22 11:53:31;;;;;;;;;11.00;9.75;;;;;10.34;86.12;98874.19;5032054;28;9652;-59
2022/12/22 11:56:00;;;;;;;;;9.75;9.25;;;;;10.34;86.02;98877.69;5032333;28;8840;-59
2022/12/22 11:58:28;;;;;;;;;9.50;9.25;;;;;10.35;86.33;98876.69;5032086;28;8838;-60
2022/12/22 12:00:56;;;;;;;;;10.50;10.00;;;;;10.38;86.29;98880.88;5036239;28;8837;-59
2022/12/22 12:03:44;;;;;;;;;14.00;11.75;;;;;10.40;86.21;98878.91;5038718;28;8858;-60
2022/12/22 12:06:12;;;;;;;;;13.50;12.00;;;;;10.38;86.15;98878.22;5038930;28;8875;-60
2022/12/22 12:08:41;;;;;;;;;13.50;13.00;;;;;10.43;86.38;98883.94;5037797;28;8852;-60
2022/12/22 12:11:10;;;;;;;;;10.00;10.00;;;;;10.70;85.78;98886.63;5038207;28;9538;-59
2022/12/22 12:13:38;;;;;;;;;10.50;9.50;;;;;10.90;85.05;98875.69;5039753;28;8884;-58
2022/12/22 12:16:06;;;;;;;;;14.50;12.00;;;;;10.94;84.73;98879.72;5039260;28;8838;-59
2022/12/22 12:18:35;;;;;;;;;8.25;8.25;;;;;11.14;84.58;98883.09;5038564;28;8854;-59
2022/12/22 12:21:03;;;;;;;;;13.50;9.25;;;;;11.32;84.30;98890.13;5038164;28;8956;-58
2022/12/22 12:23:31;;;;;;;;;13.00;12.25;;;;;11.54;83.68;98889.63;5039006;28;8885;-59
2022/12/22 12:25:59;;;;;;;;;9.50;9.50;;;;;11.67;83.77;98882.09;5038975;28;8833;-59
2022/12/22 12:28:27;;;;;;;;;9.50;7.00;;;;;11.82;83.73;98888.56;5039053;28;8826;-58
2022/12/22 12:30:55;;;;;;;;;9.25;9.25;;;;;11.93;83.20;98887.47;5039048;28;9503;-59
2022/12/22 12:33:25;;;;;;;;;9.50;9.25;;;;;12.09;82.76;98889.25;5039312;28;9559;-59
2022/12/22 12:35:53;;;;;;;;;11.00;9.75;;;;;12.17;82.68;98893.81;5038738;28;8919;-59
2022/12/22 12:38:21;;;;;;;;;11.00;10.75;;;;;12.08;82.12;98894.75;5039067;28;8830;-58
2022/12/22 12:41:09;;;;;;;;;9.00;9.00;;;;;11.85;82.84;98893.59;5037944;28;8854;-58
2022/12/22 12:43:37;;;;;;;;;7.00;6.25;;;;;11.56;83.45;98909.00;5038792;28;8866;-58
2022/12/22 12:46:05;;;;;;;;;7.25;6.50;;;;;11.32;83.57;98916.78;5038949;28;8915;-59
2022/12/22 12:48:33;;;;;;;;;8.25;7.25;;;;;11.23;84.45;98915.00;5038959;28;8854;-58
2022/12/22 12:51:01;;;;;;;;;9.25;9.00;;;;;11.19;84.46;98921.63;5039184;28;8833;-58
2022/12/22 12:53:29;;;;;;;;;9.50;9.00;;;;;11.19;84.46;98916.28;5038121;28;8932;-59
2022/12/22 12:55:58;;;;;;;;;6.75;6.75;;;;;11.15;84.19;98917.56;5038005;28;8834;-58
2022/12/22 12:58:26;;;;;;;;;9.25;8.25;;;;;11.08;84.49;98916.50;5037741;28;8834;-57
2022/12/22 13:00:54;;;;;;;;;16.00;14.50;;;;;11.08;84.14;98913.00;5037483;28;8845;-55
2022/12/22 13:03:25;;;;;;;;;11.25;8.50;;;;;11.10;84.50;98914.53;5037581;28;8873;-57
2022/12/22 13:06:14;;;;;;;;;12.25;12.00;;;;;11.15;84.52;98924.75;5037624;28;8862;-58
2022/12/22 13:08:42;;;;;;;;;9.00;7.00;;;;;11.13;83.82;98916.03;5037581;28;8834;-58
2022/12/22 13:11:10;;;;;;;;;13.00;12.00;;;;;11.05;83.90;98924.81;5037726;28;9575;-59
2022/12/22 13:13:39;;;;;;;;;9.50;8.50;;;;;10.89;84.28;98919.28;5034685;28;8984;-59
2022/12/22 13:16:07;;;;;;;;;9.25;9.00;;;;;10.80;84.50;98925.53;5035234;28;8919;-58
2022/12/22 13:18:36;;;;;;;;;11.00;9.00;;;;;10.88;84.63;98922.09;5035137;28;8862;-56
2022/12/22 13:21:10;;;;;;;;;8.00;6.00;;;;;10.90;84.49;98926.28;5035653;28;8969;-58
2022/12/22 13:23:58;;;;;;;;;15.50;12.25;;;;;11.19;83.49;98920.78;5035684;28;8864;-59
2022/12/22 13:26:47;;;;;;;;;8.25;6.50;;;;;11.37;82.99;98927.78;5035662;28;8842;-58
2022/12/22 13:29:15;;;;;;;;;12.25;10.50;;;;;11.22;82.59;98931.97;5035248;28;8848;-59
2022/12/22 13:31:44;;;;;;;;;9.25;9.00;;;;;11.02;83.63;98929.59;5034802;28;9582;-59
2022/12/22 13:34:12;;;;;;;;;13.75;12.00;;;;;10.81;83.71;98929.00;5034848;28;8833;-59
2022/12/22 13:36:40;;;;;;;;;11.00;10.75;;;;;10.65;84.22;98928.81;5035520;28;8842;-59
2022/12/22 13:39:08;;;;;;;;;17.50;15.00;;;;;10.59;84.71;98927.59;5035271;28;8869;-56
2022/12/22 13:41:37;;;;;;;;;8.75;7.50;;;;;10.59;84.71;98926.72;5035266;28;9528;-58
2022/12/22 13:44:05;;;;;;;;;6.50;6.00;;;;;10.51;84.89;98919.50;5034979;28;8834;-58
2022/12/22 13:46:33;;;;;;;;;9.25;9.00;;;;;10.42;84.92;98923.03;5034413;28;9746;-58
2022/12/22 13:49:03;;;;;;;;;9.00;9.00;;;;;10.31;84.69;98930.38;5034146;28;8845;-56
2022/12/22 13:51:31;;;;;;;;;1.00;1.00;;;;;10.18;85.25;98927.19;5035255;28;8852;-55
2022/12/22 13:54:00;;;;;;;;;6.75;6.75;;;;;10.09;85.25;98944.81;5033931;28;8838;-58
2022/12/22 13:56:38;;;;;;;;;5.50;3.75;;;;;10.02;85.29;98949.00;5033843;28;8972;-59
2022/12/22 13:59:06;;;;;;;;;4.00;3.50;;;;;10.00;85.62;98950.13;5032868;28;8842;-58
2022/12/22 14:01:34;;;;;;;;;1.50;0.50;;;;;9.98;85.26;98944.97;5033886;28;9597;-58
2022/12/22 14:04:06;;;;;;;;;7.00;6.25;;;;;9.99;85.06;98946.66;5034164;28;8845;-58
2022/12/22 14:06:35;;;;;;;;;7.00;5.50;;;;;9.97;85.34;98948.63;5032856;28;8830;-59
2022/12/22 14:09:03;;;;;;;;;6.50;6.50;;;;;9.99;84.98;98957.28;5034080;28;8842;-57
2022/12/22 14:11:31;;;;;;;;;6.00;6.00;;;;;9.99;85.43;98954.63;5034425;28;8822;-57
2022/12/22 14:13:59;;;;;;;;;5.50;4.00;;;;;9.99;85.26;98959.09;5034806;28;9031;-59
2022/12/22 14:16:27;;;;;;;;;4.00;3.50;;;;;10.01;84.95;98962.47;5034469;28;8911;-56
2022/12/22 14:18:55;;;;;;;;;6.00;5.00;;;;;10.02;85.42;98967.63;5034240;28;8852;-56
2022/12/22 14:21:23;;;;;;;;;6.25;5.50;;;;;10.03;84.81;98966.66;5033481;28;9084;-58
2022/12/22 14:23:51;;;;;;;;;6.00;5.00;;;;;10.06;85.14;98962.88;5031841;28;8842;-56
2022/12/22 14:26:19;;;;;;;;;6.00;6.00;;;;;10.06;84.59;98966.41;5034205;28;8826;-58
2022/12/22 14:28:49;;;;;;;;;7.75;6.75;;;;;10.09;84.41;98970.59;5034061;28;8859;-57
2022/12/22 14:31:17;;;;;;;;;3.50;3.00;;;;;10.11;84.68;98964.13;5032714;28;8830;-56
2022/12/22 14:33:45;;;;;;;;;7.00;7.00;;;;;10.13;84.48;98969.31;5033397;28;8830;-58
2022/12/22 14:36:13;;;;;;;;;6.00;5.00;;;;;10.11;84.24;98969.44;5033056;28;9638;-59
2022/12/22 14:38:42;;;;;;;;;3.75;3.25;;;;;10.09;84.20;98982.06;5032596;28;8849;-56
2022/12/22 14:41:10;;;;;;;;;3.25;3.25;;;;;10.04;84.77;98983.47;5033904;28;9670;-56
2022/12/22 14:43:38;;;;;;;;;4.50;3.75;;;;;9.99;84.53;98991.84;5033256;28;8818;-56
2022/12/22 14:46:06;;;;;;;;;3.00;3.00;;;;;9.94;84.71;98988.78;5031287;28;8834;-57
2022/12/22 14:48:34;;;;;;;;;8.50;7.25;;;;;9.88;84.36;98984.00;5031370;28;8880;-58
2022/12/22 14:51:02;;;;;;;;;8.50;7.25;;;;;9.82;84.83;98983.75;5029755;28;8841;-58
2022/12/22 14:53:31;;;;;;;;;7.25;5.50;;;;;9.75;84.66;98977.31;5031390;28;8903;-58
2022/12/22 14:55:59;;;;;;;;;8.75;6.25;;;;;9.67;85.03;98970.06;5031547;28;8942;-56
2022/12/22 14:58:28;;;;;;;;;8.50;7.00;;;;;9.59;84.81;98972.56;5030486;28;8875;-56
2022/12/22 15:00:56;;;;;;;;;9.50;9.25;;;;;9.50;84.83;98970.72;5030158;28;8851;-59
2022/12/22 15:03:24;;;;;;;;;7.50;6.25;;;;;9.44;84.97;98973.09;5031623;28;8844;-58
2022/12/22 15:05:53;;;;;;;;;6.25;6.00;;;;;9.36;85.68;98976.47;5031833;28;8942;-57
2022/12/22 15:08:21;;;;;;;;;8.00;6.75;;;;;9.28;85.61;98973.63;5030784;28;8841;-58
2022/12/22 15:10:49;;;;;;;;;7.75;6.75;;;;;9.21;85.53;98972.53;5029858;28;8859;-58
2022/12/22 15:13:17;;;;;;;;;9.50;9.00;;;;;9.16;85.62;98974.75;5031136;28;8840;-56
2022/12/22 15:15:45;;;;;;;;;10.50;10.00;;;;;9.11;85.60;98966.34;5012150;28;8863;-56
2022/12/22 15:18:13;;;;;;;;;6.00;6.00;;;;;9.08;85.60;98965.78;5012388;28;8886;-57
2022/12/22 15:20:41;;;;;;;;;8.25;7.50;;;;;9.07;86.13;98967.63;5012568;28;8842;-58
2022/12/22 15:23:09;;;;;;;;;10.00;9.25;;;;;9.07;85.61;98958.78;5012147;28;8981;-60
2022/12/22 15:25:37;;;;;;;;;4.50;4.50;;;;;9.04;85.26;98956.44;5029497;28;8875;-59